createdAt,value
2018-03-25T00:00:50.580Z,86.30
2018-03-25T00:03:19.450Z,87.20
2018-03-25T00:05:48.751Z,86.50
2018-03-25T00:08:16.781Z,86.60
2018-03-25T00:10:44.897Z,87.20
2018-03-25T00:13:13.045Z,87.40
2018-03-25T00:15:41.166Z,87.70
2018-03-25T00:18:09.255Z,88.10
2018-03-25T00:20:37.308Z,88.10
2018-03-25T00:23:05.339Z,88.10
2018-03-25T00:25:33.401Z,88.70
2018-03-25T00:28:01.433Z,89.00
2018-03-25T00:30:29.573Z,89.10
2018-03-25T00:32:57.607Z,89.00
2018-03-25T00:35:25.661Z,89.30
2018-03-25T00:37:58.467Z,89.50
2018-03-25T00:40:26.500Z,90.00
2018-03-25T00:42:55.321Z,90.30
2018-03-25T00:45:23.375Z,90.30
2018-03-25T00:47:51.488Z,90.50
2018-03-25T00:50:19.543Z,90.30
2018-03-25T00:52:47.581Z,90.40
2018-03-25T00:55:15.628Z,90.30
2018-03-25T00:57:44.431Z,90.30
2018-03-25T01:00:13.248Z,90.50
2018-03-25T01:02:41.280Z,90.50
2018-03-25T01:05:09.416Z,90.40
2018-03-25T01:07:37.507Z,90.50
2018-03-25T01:10:05.569Z,90.50
2018-03-25T01:12:34.383Z,90.30
2018-03-25T01:15:02.476Z,90.30
2018-03-25T01:17:30.570Z,90.40
2018-03-25T01:19:58.631Z,90.70
2018-03-25T01:22:27.444Z,90.70
2018-03-25T01:24:55.480Z,90.70
2018-03-25T01:27:23.527Z,90.80
2018-03-25T01:29:51.564Z,90.50
2018-03-25T01:32:19.620Z,90.70
2018-03-25T01:34:47.664Z,91.00
2018-03-25T01:37:15.752Z,90.60
2018-03-25T01:39:43.788Z,90.70
2018-03-25T01:42:11.847Z,90.60
2018-03-25T01:44:39.883Z,90.80
2018-03-25T01:47:08.679Z,90.70
2018-03-25T01:49:37.496Z,90.70
2018-03-25T01:52:06.408Z,90.80
2018-03-25T01:54:34.533Z,90.80
2018-03-25T01:57:02.617Z,90.30
2018-03-25T01:59:30.623Z,89.30
2018-03-25T02:01:58.657Z,88.60
2018-03-25T02:04:26.702Z,88.60
2018-03-25T02:06:54.816Z,88.50
2018-03-25T02:09:22.856Z,89.80
2018-03-25T02:11:50.896Z,90.00
2018-03-25T02:14:18.968Z,90.30
2018-03-25T02:16:47.020Z,90.40
2018-03-25T02:19:16.576Z,90.70
2018-03-25T02:21:44.659Z,90.70
2018-03-25T02:24:12.700Z,90.60
2018-03-25T02:26:40.759Z,89.10
2018-03-25T02:29:08.796Z,87.40
2018-03-25T02:31:37.625Z,86.90
2018-03-25T02:34:05.697Z,86.70
2018-03-25T02:36:33.736Z,87.30
2018-03-25T02:39:01.873Z,88.00
2018-03-25T02:41:29.915Z,88.60
2018-03-25T02:43:59.563Z,89.30
2018-03-25T02:46:28.364Z,90.00
2018-03-25T02:48:57.177Z,90.10
2018-03-25T02:51:25.225Z,90.10
2018-03-25T02:53:53.262Z,89.70
2018-03-25T02:56:21.303Z,89.10
2018-03-25T02:58:50.109Z,88.70
2018-03-25T03:01:18.937Z,88.60
2018-03-25T03:03:46.972Z,88.60
2018-03-25T03:06:15.024Z,89.10
2018-03-25T03:08:43.063Z,89.60
2018-03-25T03:11:11.879Z,89.90
2018-03-25T03:13:39.916Z,89.90
2018-03-25T03:16:07.973Z,89.60
2018-03-25T03:18:36.016Z,89.40
2018-03-25T03:21:04.812Z,90.00
2018-03-25T03:23:33.631Z,89.70
2018-03-25T03:26:02.552Z,90.00
2018-03-25T03:28:30.596Z,90.10
2018-03-25T03:30:58.633Z,90.10
2018-03-25T03:33:26.680Z,90.40
2018-03-25T03:35:55.480Z,90.60
2018-03-25T03:38:24.296Z,90.60
2018-03-25T03:40:53.109Z,90.50
2018-03-25T03:43:21.156Z,90.50
2018-03-25T03:45:49.216Z,90.50
2018-03-25T03:48:17.248Z,90.20
2018-03-25T03:50:46.054Z,90.30
2018-03-25T03:53:14.113Z,90.30
2018-03-25T03:55:42.150Z,90.20
2018-03-25T03:58:10.212Z,90.30
2018-03-25T04:00:38.260Z,90.20
2018-03-25T04:03:06.304Z,90.40
2018-03-25T04:05:34.344Z,90.50
2018-03-25T04:08:03.268Z,90.50
2018-03-25T04:10:31.349Z,90.50
2018-03-25T04:12:59.380Z,90.70
2018-03-25T04:15:27.452Z,90.80
2018-03-25T04:17:55.508Z,90.70
2018-03-25T04:20:23.538Z,90.80
2018-03-25T04:22:51.592Z,90.70
2018-03-25T04:25:19.655Z,90.70
2018-03-25T04:27:47.708Z,90.70
2018-03-25T04:30:15.764Z,91.30
2018-03-25T04:32:43.792Z,91.40
2018-03-25T04:35:12.616Z,91.50
2018-03-25T04:37:40.673Z,91.50
2018-03-25T04:40:09.475Z,91.60
2018-03-25T04:42:39.041Z,92.10
2018-03-25T04:45:07.071Z,92.10
2018-03-25T04:47:35.867Z,92.40
2018-03-25T04:50:04.692Z,92.30
2018-03-25T04:52:33.499Z,92.30
2018-03-25T04:55:01.576Z,92.30
2018-03-25T04:57:30.388Z,92.20
2018-03-25T04:59:58.471Z,92.20
2018-03-25T05:02:26.523Z,92.20
2018-03-25T05:04:54.648Z,92.10
2018-03-25T05:07:22.700Z,92.00
2018-03-25T05:09:50.740Z,92.20
2018-03-25T05:12:18.901Z,92.20
2018-03-25T05:14:46.961Z,92.30
2018-03-25T05:17:14.996Z,92.50
2018-03-25T05:19:43.035Z,92.70
2018-03-25T05:22:11.964Z,92.80
2018-03-25T05:24:40.004Z,92.80
2018-03-25T05:27:08.051Z,93.00
2018-03-25T05:29:36.109Z,93.10
2018-03-25T05:32:04.160Z,93.20
2018-03-25T05:34:32.209Z,93.20
2018-03-25T05:37:00.268Z,93.10
2018-03-25T05:39:28.340Z,93.00
2018-03-25T05:41:56.437Z,92.90
2018-03-25T05:44:24.482Z,92.70
2018-03-25T05:46:52.605Z,93.00
2018-03-25T05:49:20.664Z,92.90
2018-03-25T05:51:48.697Z,92.60
2018-03-25T05:54:16.856Z,93.10
2018-03-25T05:56:44.945Z,93.10
2018-03-25T05:59:12.992Z,93.00
2018-03-25T06:01:41.061Z,93.00
2018-03-25T06:04:09.090Z,93.30
2018-03-25T06:06:37.175Z,93.60
2018-03-25T06:09:05.238Z,93.70
2018-03-25T06:11:33.343Z,93.40
2018-03-25T06:14:01.437Z,92.70
2018-03-25T06:16:29.468Z,92.00
2018-03-25T06:18:57.524Z,91.90
2018-03-25T06:21:25.572Z,91.70
2018-03-25T06:23:54.392Z,91.70
2018-03-25T06:26:22.430Z,91.70
2018-03-25T06:28:50.481Z,91.60
2018-03-25T06:31:18.516Z,91.50
2018-03-25T06:33:47.316Z,91.90
2018-03-25T06:36:16.140Z,91.80
2018-03-25T06:38:44.182Z,92.10
2018-03-25T06:41:12.224Z,92.10
2018-03-25T06:43:40.295Z,92.00
2018-03-25T06:46:08.328Z,91.80
2018-03-25T06:48:36.410Z,91.40
2018-03-25T06:51:04.436Z,91.00
2018-03-25T06:53:33.451Z,91.30
2018-03-25T06:56:01.489Z,91.30
2018-03-25T06:58:29.556Z,90.60
2018-03-25T07:00:57.605Z,90.50
2018-03-25T07:03:26.447Z,90.10
2018-03-25T07:05:54.600Z,90.10
2018-03-25T07:08:22.632Z,90.00
2018-03-25T07:10:50.676Z,89.30
2018-03-25T07:13:18.771Z,89.60
2018-03-25T07:15:46.839Z,89.30
2018-03-25T07:18:14.895Z,88.50
2018-03-25T07:20:43.730Z,88.70
2018-03-25T07:23:11.816Z,88.70
2018-03-25T07:25:39.937Z,89.20
2018-03-25T07:28:08.010Z,88.30
2018-03-25T07:30:36.068Z,88.00
2018-03-25T07:33:04.119Z,87.70
2018-03-25T07:35:32.339Z,87.20
2018-03-25T07:38:00.448Z,86.20
2018-03-25T07:40:28.541Z,86.60
2018-03-25T07:42:56.588Z,85.90
2018-03-25T07:45:24.696Z,85.50
2018-03-25T07:47:53.490Z,85.20
2018-03-25T07:50:22.308Z,84.10
2018-03-25T07:52:50.356Z,84.00
2018-03-25T07:55:18.484Z,83.90
2018-03-25T07:57:46.536Z,83.90
2018-03-25T08:00:14.662Z,83.20
2018-03-25T08:02:42.733Z,83.20
2018-03-25T08:05:10.824Z,83.20
2018-03-25T08:07:38.860Z,81.40
2018-03-25T08:10:06.918Z,81.10
2018-03-25T08:12:34.948Z,80.30
2018-03-25T08:15:03.764Z,81.40
2018-03-25T08:17:32.596Z,80.90
2018-03-25T08:20:00.667Z,80.80
2018-03-25T08:22:28.700Z,80.30
2018-03-25T08:24:56.928Z,80.90
2018-03-25T08:27:25.725Z,80.10
2018-03-25T08:29:54.524Z,79.30
2018-03-25T08:32:23.345Z,78.70
2018-03-25T08:34:51.396Z,78.70
2018-03-25T08:37:19.436Z,79.70
2018-03-25T08:39:47.463Z,79.20
2018-03-25T08:42:15.517Z,78.70
2018-03-25T08:44:43.548Z,77.60
2018-03-25T08:47:12.472Z,76.50
2018-03-25T08:49:40.516Z,76.50
2018-03-25T08:55:40.128Z,77.50
2018-03-25T08:58:08.190Z,74.30
2018-03-25T09:00:36.979Z,74.10
2018-03-25T09:03:05.027Z,73.80
2018-03-25T09:05:33.076Z,73.40
2018-03-25T09:08:01.108Z,73.50
2018-03-25T09:10:29.161Z,71.10
2018-03-25T09:12:57.208Z,72.10
2018-03-25T09:15:26.028Z,72.30
2018-03-25T09:17:54.066Z,72.20
2018-03-25T09:20:22.103Z,73.60
2018-03-25T09:22:50.159Z,70.30
2018-03-25T09:25:18.960Z,72.90
2018-03-25T09:27:47.787Z,70.80
2018-03-25T09:30:15.842Z,70.70
2018-03-25T09:32:44.639Z,70.70
2018-03-25T09:35:12.755Z,71.00
2018-03-25T09:37:40.801Z,71.80
2018-03-25T09:40:08.832Z,71.50
2018-03-25T09:42:36.885Z,69.90
2018-03-25T09:45:05.686Z,70.00
2018-03-25T09:47:33.741Z,69.80
2018-03-25T09:50:01.779Z,69.00
2018-03-25T09:52:29.862Z,67.40
2018-03-25T09:54:58.664Z,67.70
2018-03-25T09:57:26.751Z,67.70
2018-03-25T09:59:54.805Z,67.40
2018-03-25T10:02:26.769Z,66.70
2018-03-25T10:04:54.820Z,68.30
2018-03-25T10:07:22.859Z,67.30
2018-03-25T10:09:51.790Z,61.90
2018-03-25T10:12:19.827Z,61.70
2018-03-25T10:14:47.889Z,63.40
2018-03-25T10:17:15.923Z,65.00
2018-03-25T10:19:44.741Z,63.70
2018-03-25T10:22:12.803Z,63.70
2018-03-25T10:24:41.600Z,61.00
2018-03-25T10:27:11.252Z,62.20
2018-03-25T10:29:39.321Z,62.20
2018-03-25T10:32:08.144Z,63.10
2018-03-25T10:34:36.185Z,63.20
2018-03-25T10:37:04.268Z,62.80
2018-03-25T10:39:32.324Z,60.30
2018-03-25T10:42:00.383Z,59.00
2018-03-25T10:44:28.442Z,58.90
2018-03-25T10:46:57.284Z,60.10
2018-03-25T10:49:25.320Z,60.00
2018-03-25T10:51:54.128Z,56.10
2018-03-25T10:54:22.957Z,57.80
2018-03-25T10:56:51.057Z,57.60
2018-03-25T10:59:19.099Z,57.70
2018-03-25T11:01:47.908Z,56.40
2018-03-25T11:04:16.728Z,57.10
2018-03-25T11:06:44.796Z,57.10
2018-03-25T11:09:13.616Z,57.00
2018-03-25T11:11:41.891Z,57.00
2018-03-25T11:14:09.965Z,57.20
2018-03-25T11:16:38.771Z,56.50
2018-03-25T11:19:07.603Z,57.30
2018-03-25T11:21:35.647Z,57.40
2018-03-25T11:24:04.460Z,55.80
2018-03-25T11:26:33.283Z,54.70
2018-03-25T11:29:01.329Z,54.70
2018-03-25T11:31:30.156Z,56.00
2018-03-25T11:33:58.545Z,55.60
2018-03-25T11:36:26.591Z,54.60
2018-03-25T11:38:55.305Z,55.70
2018-03-25T11:41:23.344Z,54.30
2018-03-25T11:43:51.409Z,53.90
2018-03-25T11:46:19.456Z,54.30
2018-03-25T11:48:47.544Z,54.60
2018-03-25T11:51:16.368Z,55.40
2018-03-25T11:53:44.418Z,55.50
2018-03-25T11:56:12.472Z,55.40
2018-03-25T11:58:40.524Z,53.60
2018-03-25T12:01:08.792Z,55.10
2018-03-25T12:03:37.740Z,52.00
2018-03-25T12:06:05.788Z,52.00
2018-03-25T12:08:34.616Z,53.90
2018-03-25T12:11:02.657Z,53.90
2018-03-25T12:13:30.724Z,52.90
2018-03-25T12:15:58.823Z,52.90
2018-03-25T12:18:26.848Z,51.70
2018-03-25T12:20:54.908Z,54.20
2018-03-25T12:23:23.716Z,52.70
2018-03-25T12:25:52.551Z,51.40
2018-03-25T12:28:20.591Z,51.40
2018-03-25T12:30:49.421Z,51.30
2018-03-25T12:33:17.522Z,50.90
2018-03-25T12:35:45.524Z,51.70
2018-03-25T12:38:13.571Z,52.60
2018-03-25T12:40:41.623Z,52.50
2018-03-25T12:43:09.680Z,51.00
2018-03-25T12:45:37.733Z,51.60
2018-03-25T12:48:05.799Z,50.60
2018-03-25T12:50:34.617Z,49.20
2018-03-25T12:53:02.684Z,49.10
2018-03-25T12:55:31.497Z,49.90
2018-03-25T12:58:00.305Z,49.70
2018-03-25T13:00:28.371Z,49.60
2018-03-25T13:02:56.414Z,49.40
2018-03-25T13:05:24.665Z,45.90
2018-03-25T13:07:52.709Z,48.80
2018-03-25T13:10:20.787Z,48.30
2018-03-25T13:12:48.843Z,48.90
2018-03-25T13:15:16.882Z,47.90
2018-03-25T13:17:45.700Z,46.90
2018-03-25T13:20:13.791Z,46.80
2018-03-25T13:22:41.848Z,48.60
2018-03-25T13:25:10.673Z,45.60
2018-03-25T13:27:38.736Z,45.60
2018-03-25T13:30:07.540Z,43.00
2018-03-25T13:32:36.369Z,45.20
2018-03-25T13:35:04.425Z,45.10
2018-03-25T13:37:33.251Z,46.00
2018-03-25T13:40:01.294Z,46.00
2018-03-25T13:42:30.876Z,43.90
2018-03-25T13:44:58.924Z,43.80
2018-03-25T13:47:27.804Z,42.90
2018-03-25T13:49:55.865Z,42.90
2018-03-25T13:52:23.913Z,42.30
2018-03-25T13:54:51.971Z,44.60
2018-03-25T13:57:20.785Z,45.40
2018-03-25T13:59:49.620Z,44.90
2018-03-25T14:02:17.665Z,44.90
2018-03-25T14:04:46.489Z,42.40
2018-03-25T14:07:14.583Z,42.30
2018-03-25T14:09:42.821Z,44.80
2018-03-25T14:12:10.849Z,45.10
2018-03-25T14:14:38.924Z,45.60
2018-03-25T14:17:06.964Z,43.30
2018-03-25T14:19:36.520Z,40.60
2018-03-25T14:22:04.580Z,40.60
2018-03-25T14:24:32.630Z,42.80
2018-03-25T14:27:00.696Z,43.10
2018-03-25T14:29:28.739Z,42.70
2018-03-25T14:31:57.556Z,42.00
2018-03-25T14:34:26.374Z,38.80
2018-03-25T14:36:54.432Z,38.70
2018-03-25T14:39:23.268Z,40.80
2018-03-25T14:41:51.344Z,40.80
2018-03-25T14:44:19.404Z,42.30
2018-03-25T14:46:48.232Z,41.30
2018-03-25T14:49:16.272Z,41.30
2018-03-25T14:51:44.392Z,42.40
2018-03-25T14:54:12.460Z,42.00
2018-03-25T14:56:41.277Z,44.10
2018-03-25T14:59:10.084Z,43.00
2018-03-25T15:01:38.168Z,43.10
2018-03-25T15:04:06.264Z,42.60
2018-03-25T15:06:34.323Z,42.60
2018-03-25T15:09:03.153Z,42.10
2018-03-25T15:11:31.229Z,42.10
2018-03-25T15:14:00.038Z,43.40
2018-03-25T15:16:28.080Z,43.30
2018-03-25T15:18:56.141Z,42.30
2018-03-25T15:21:24.207Z,43.60
2018-03-25T15:23:52.252Z,43.70
2018-03-25T15:26:21.076Z,44.50
2018-03-25T15:28:49.145Z,44.40
2018-03-25T15:31:17.970Z,43.10
2018-03-25T15:33:46.113Z,43.10
2018-03-25T15:36:14.180Z,44.60
2018-03-25T15:38:42.238Z,45.00
2018-03-25T15:41:10.284Z,45.00
2018-03-25T15:43:39.108Z,44.70
2018-03-25T15:46:07.151Z,44.60
2018-03-25T15:48:35.313Z,44.80
2018-03-25T15:51:03.380Z,45.50
2018-03-25T15:53:31.417Z,45.40
2018-03-25T15:56:00.219Z,45.70
2018-03-25T15:58:29.064Z,46.50
2018-03-25T16:00:57.132Z,46.40
2018-03-25T16:03:25.976Z,46.30
2018-03-25T16:05:54.080Z,46.50
2018-03-25T16:08:22.140Z,46.30
2018-03-25T16:10:50.211Z,46.40
2018-03-25T16:13:18.253Z,46.20
2018-03-25T16:15:47.149Z,46.60
2018-03-25T16:18:15.979Z,47.30
2018-03-25T16:20:44.032Z,47.20
2018-03-25T16:23:13.600Z,47.60
2018-03-25T16:25:41.652Z,47.60
2018-03-25T16:28:10.469Z,48.80
2018-03-25T16:30:38.524Z,48.80
2018-03-25T16:33:06.568Z,48.00
2018-03-25T16:35:34.636Z,48.10
2018-03-25T16:38:02.683Z,48.50
2018-03-25T16:40:31.613Z,48.50
2018-03-25T16:42:59.656Z,48.40
2018-03-25T16:45:27.726Z,48.50
2018-03-25T16:47:55.787Z,49.50
2018-03-25T16:50:23.847Z,49.00
2018-03-25T16:52:51.884Z,50.00
2018-03-25T16:55:19.934Z,50.90
2018-03-25T16:57:48.001Z,50.90
2018-03-25T17:00:16.044Z,50.90
2018-03-25T17:02:44.108Z,51.10
2018-03-25T17:05:12.152Z,50.70
2018-03-25T17:07:40.216Z,52.10
2018-03-25T17:10:09.029Z,53.40
2018-03-25T17:12:37.860Z,55.20
2018-03-25T17:15:05.938Z,55.30
2018-03-25T17:17:33.980Z,54.50
2018-03-25T17:20:02.024Z,56.20
2018-03-25T17:22:30.091Z,56.70
2018-03-25T17:24:58.128Z,57.50
2018-03-25T17:27:26.192Z,57.60
2018-03-25T17:29:54.280Z,58.40
2018-03-25T17:32:22.340Z,58.20
2018-03-25T17:34:50.524Z,59.50
2018-03-25T17:37:18.584Z,60.40
2018-03-25T17:39:46.863Z,61.40
2018-03-25T17:42:15.660Z,63.70
2018-03-25T17:44:44.486Z,63.50
2018-03-25T17:47:12.568Z,63.40
2018-03-25T17:49:40.620Z,64.30
2018-03-25T17:52:08.656Z,64.80
2018-03-25T17:54:36.703Z,65.20
2018-03-25T17:57:05.512Z,66.60
2018-03-25T17:59:34.440Z,67.00
2018-03-25T18:02:02.571Z,67.00
2018-03-25T18:04:30.617Z,67.50
2018-03-25T18:06:58.669Z,68.10
2018-03-25T18:09:27.465Z,70.20
2018-03-25T18:11:56.280Z,70.80
2018-03-25T18:14:25.094Z,71.50
2018-03-25T18:16:53.898Z,72.70
2018-03-25T18:19:21.992Z,72.60
2018-03-25T18:21:50.752Z,74.20
2018-03-25T18:24:19.665Z,74.50
2018-03-25T18:26:47.612Z,74.50
2018-03-25T18:29:15.662Z,76.40
2018-03-25T18:31:43.700Z,78.50
2018-03-25T18:34:11.827Z,78.80
2018-03-25T18:36:39.900Z,78.20
2018-03-25T18:39:07.963Z,79.70
2018-03-25T18:41:36.776Z,78.60
2018-03-25T18:44:05.588Z,78.20
2018-03-25T18:46:33.685Z,78.20
2018-03-25T18:49:02.481Z,77.80
2018-03-25T18:51:31.350Z,77.80
2018-03-25T18:53:59.464Z,77.80
2018-03-25T18:56:27.508Z,77.70
2018-03-25T18:58:55.556Z,77.50
2018-03-25T19:01:23.602Z,77.40
2018-03-25T19:03:51.643Z,77.80
2018-03-25T19:06:19.704Z,78.40
2018-03-25T19:08:47.776Z,78.10
2018-03-25T19:11:15.809Z,78.50
2018-03-25T19:13:43.860Z,78.90
2018-03-25T19:16:11.892Z,78.80
2018-03-25T19:18:40.013Z,78.80
2018-03-25T19:21:08.048Z,79.70
2018-03-25T19:23:36.100Z,79.20
2018-03-25T19:26:04.132Z,79.80
2018-03-25T19:28:32.360Z,79.90
2018-03-25T19:31:01.164Z,81.00
2018-03-25T19:33:29.203Z,81.00
2018-03-25T19:35:57.259Z,81.10
2018-03-25T19:38:25.324Z,81.70
2018-03-25T19:40:53.364Z,82.80
2018-03-25T19:43:22.179Z,79.80
2018-03-25T19:45:51.837Z,79.70
2018-03-25T19:48:19.988Z,79.70
2018-03-25T19:50:48.807Z,79.10
2018-03-25T19:53:16.832Z,79.10
2018-03-25T19:55:44.968Z,79.60
2018-03-25T19:58:13.033Z,80.80
2018-03-25T20:00:41.071Z,81.90
2018-03-25T20:03:09.115Z,82.60
2018-03-25T20:05:37.916Z,83.10
2018-03-25T20:08:06.727Z,83.40
2018-03-25T20:10:34.783Z,83.40
2018-03-25T20:13:02.844Z,84.30
2018-03-25T20:15:30.880Z,84.50
2018-03-25T20:17:58.916Z,85.10
2018-03-25T20:20:26.967Z,85.30
2018-03-25T20:22:55.026Z,86.50
2018-03-25T20:25:23.821Z,86.00
2018-03-25T20:27:52.649Z,86.80
2018-03-25T20:30:20.688Z,85.90
2018-03-25T20:32:49.508Z,86.40
2018-03-25T20:35:18.304Z,86.50
2018-03-25T20:37:47.130Z,86.50
2018-03-25T20:40:15.189Z,86.50
2018-03-25T20:42:43.995Z,87.00
2018-03-25T20:45:12.814Z,86.90
2018-03-25T20:47:40.864Z,86.80
2018-03-25T20:50:08.916Z,86.70
2018-03-25T20:52:36.964Z,87.30
2018-03-25T20:55:05.042Z,87.60
2018-03-25T20:57:33.832Z,88.40
2018-03-25T21:00:02.688Z,89.60
2018-03-25T21:02:30.721Z,88.90
2018-03-25T21:04:59.543Z,88.40
2018-03-25T21:07:27.580Z,88.40
2018-03-25T21:09:55.668Z,88.60
2018-03-25T21:12:23.700Z,88.50
2018-03-25T21:14:51.733Z,88.60
2018-03-25T21:17:19.795Z,88.40
2018-03-25T21:19:47.827Z,88.40
2018-03-25T21:22:16.638Z,88.20
2018-03-25T21:24:45.446Z,87.90
2018-03-25T21:27:14.240Z,88.00
2018-03-25T21:29:43.053Z,88.00
2018-03-25T21:32:11.092Z,88.00
2018-03-25T21:34:39.145Z,88.00
2018-03-25T21:37:07.187Z,87.90
2018-03-25T21:39:36.014Z,88.00
2018-03-25T21:42:04.823Z,87.80
2018-03-25T21:44:32.861Z,87.80
2018-03-25T21:47:00.912Z,87.70
2018-03-25T21:49:28.968Z,87.60
2018-03-25T21:51:57.024Z,88.00
2018-03-25T21:54:25.059Z,88.30
2018-03-25T21:56:53.121Z,88.40
2018-03-25T21:59:21.159Z,87.70
2018-03-25T22:01:49.285Z,87.50
2018-03-25T22:04:17.344Z,87.30
2018-03-25T22:06:46.143Z,87.10
2018-03-25T22:09:14.185Z,86.60
2018-03-25T22:11:42.241Z,86.90
2018-03-25T22:14:10.279Z,87.30
2018-03-25T22:16:38.334Z,88.00
2018-03-25T22:19:06.368Z,88.20
2018-03-25T22:21:35.183Z,89.50
2018-03-25T22:24:03.994Z,89.20
2018-03-25T22:26:32.796Z,89.50
2018-03-25T22:29:00.844Z,90.10
2018-03-25T22:31:28.884Z,90.00
2018-03-25T22:33:56.955Z,90.10
2018-03-25T22:36:24.984Z,90.10
2018-03-25T22:38:53.032Z,90.10
2018-03-25T22:41:21.069Z,90.30
2018-03-25T22:43:49.126Z,90.20
2018-03-25T22:46:17.184Z,90.20
2018-03-25T22:48:45.211Z,90.00
2018-03-25T22:51:13.275Z,90.10
2018-03-25T22:53:41.303Z,90.60
2018-03-25T22:56:10.104Z,90.00
2018-03-25T22:58:38.912Z,89.60
2018-03-25T23:01:07.715Z,89.20
2018-03-25T23:03:36.532Z,89.50
2018-03-25T23:06:04.572Z,89.60
2018-03-25T23:08:32.619Z,89.80
2018-03-25T23:11:00.676Z,89.20
2018-03-25T23:13:29.479Z,89.30
2018-03-25T23:15:57.538Z,89.30
2018-03-25T23:18:25.567Z,89.40
2018-03-25T23:20:53.621Z,90.20
2018-03-25T23:23:22.520Z,90.40
2018-03-25T23:25:51.332Z,90.20
2018-03-25T23:28:20.162Z,90.10
2018-03-25T23:30:48.194Z,90.10
2018-03-25T23:33:16.236Z,90.00
2018-03-25T23:35:44.288Z,90.20
2018-03-25T23:38:13.128Z,90.20
2018-03-25T23:40:41.165Z,90.20
2018-03-25T23:43:09.981Z,89.40
2018-03-25T23:45:38.804Z,88.90
2018-03-25T23:48:06.862Z,88.90
2018-03-25T23:50:35.669Z,87.80
2018-03-25T23:53:04.464Z,87.80
2018-03-25T23:55:33.301Z,87.90
2018-03-25T23:58:01.371Z,87.90
